sensor_id;sensor_type;location;lat;lon;timestamp;P1;durP1;ratioP1;P2;durP2;ratioP2
59127;SDS011;44912;52.754;5.994;2023-08-30T00:00:40;12.82;;;10.18;;
59127;SDS011;44912;52.754;5.994;2023-08-30T00:03:06;12.48;;;9.98;;
59127;SDS011;44912;52.754;5.994;2023-08-30T00:05:32;13.13;;;9.82;;
59127;SDS011;44912;52.754;5.994;2023-08-30T00:07:57;15.05;;;9.50;;
59127;SDS011;44912;52.754;5.994;2023-08-30T00:10:23;13.27;;;9.63;;
59127;SDS011;44912;52.754;5.994;2023-08-30T00:12:49;12.85;;;9.75;;
59127;SDS011;44912;52.754;5.994;2023-08-30T00:15:15;14.20;;;9.32;;
59127;SDS011;44912;52.754;5.994;2023-08-30T00:17:40;13.18;;;9.57;;
59127;SDS011;44912;52.754;5.994;2023-08-30T00:20:06;12.43;;;9.50;;
59127;SDS011;44912;52.754;5.994;2023-08-30T00:22:33;12.07;;;9.07;;
59127;SDS011;44912;52.754;5.994;2023-08-30T00:24:59;13.02;;;9.57;;
59127;SDS011;44912;52.754;5.994;2023-08-30T00:27:25;12.40;;;9.63;;
59127;SDS011;44912;52.754;5.994;2023-08-30T00:29:50;12.63;;;9.63;;
59127;SDS011;44912;52.754;5.994;2023-08-30T00:32:16;12.13;;;8.90;;
59127;SDS011;44912;52.754;5.994;2023-08-30T00:34:41;13.25;;;9.13;;
59127;SDS011;44912;52.754;5.994;2023-08-30T00:37:07;11.88;;;9.32;;
59127;SDS011;44912;52.754;5.994;2023-08-30T00:39:33;14.25;;;9.73;;
59127;SDS011;44912;52.754;5.994;2023-08-30T00:42:02;12.40;;;9.70;;
59127;SDS011;44912;52.754;5.994;2023-08-30T00:44:30;12.95;;;9.88;;
59127;SDS011;44912;52.754;5.994;2023-08-30T00:46:57;15.15;;;9.80;;
59127;SDS011;44912;52.754;5.994;2023-08-30T00:49:23;13.07;;;10.27;;
59127;SDS011;44912;52.754;5.994;2023-08-30T00:51:48;14.70;;;10.68;;
59127;SDS011;44912;52.754;5.994;2023-08-30T00:54:14;12.45;;;10.18;;
59127;SDS011;44912;52.754;5.994;2023-08-30T00:56:41;13.30;;;10.10;;
59127;SDS011;44912;52.754;5.994;2023-08-30T00:59:06;13.63;;;10.25;;
59127;SDS011;44912;52.754;5.994;2023-08-30T01:01:32;13.02;;;9.95;;
59127;SDS011;44912;52.754;5.994;2023-08-30T01:06:58;14.18;;;10.43;;
59127;SDS011;44912;52.754;5.994;2023-08-30T01:09:24;12.07;;;9.80;;
59127;SDS011;44912;52.754;5.994;2023-08-30T01:11:55;13.52;;;10.13;;
59127;SDS011;44912;52.754;5.994;2023-08-30T01:17:10;15.25;;;10.93;;
59127;SDS011;44912;52.754;5.994;2023-08-30T01:25:25;15.10;;;10.73;;
59127;SDS011;44912;52.754;5.994;2023-08-30T01:28:19;13.77;;;11.27;;
59127;SDS011;44912;52.754;5.994;2023-08-30T01:30:47;13.93;;;10.25;;
59127;SDS011;44912;52.754;5.994;2023-08-30T01:33:13;15.23;;;10.50;;
59127;SDS011;44912;52.754;5.994;2023-08-30T01:35:40;15.20;;;11.65;;
59127;SDS011;44912;52.754;5.994;2023-08-30T01:38:07;14.95;;;11.32;;
59127;SDS011;44912;52.754;5.994;2023-08-30T01:40:41;14.38;;;11.77;;
59127;SDS011;44912;52.754;5.994;2023-08-30T01:43:08;14.07;;;11.35;;
59127;SDS011;44912;52.754;5.994;2023-08-30T01:45:36;15.07;;;11.48;;
59127;SDS011;44912;52.754;5.994;2023-08-30T01:48:05;15.27;;;11.55;;
59127;SDS011;44912;52.754;5.994;2023-08-30T01:50:34;14.40;;;11.30;;
59127;SDS011;44912;52.754;5.994;2023-08-30T01:53:00;15.48;;;11.75;;
59127;SDS011;44912;52.754;5.994;2023-08-30T01:55:27;16.77;;;12.00;;
59127;SDS011;44912;52.754;5.994;2023-08-30T01:57:54;16.80;;;12.60;;
59127;SDS011;44912;52.754;5.994;2023-08-30T02:00:20;14.77;;;11.73;;
59127;SDS011;44912;52.754;5.994;2023-08-30T02:02:46;15.10;;;12.65;;
59127;SDS011;44912;52.754;5.994;2023-08-30T02:05:12;15.40;;;11.38;;
59127;SDS011;44912;52.754;5.994;2023-08-30T02:10:09;15.32;;;12.18;;
59127;SDS011;44912;52.754;5.994;2023-08-30T02:12:39;15.85;;;11.77;;
59127;SDS011;44912;52.754;5.994;2023-08-30T02:15:14;14.07;;;11.77;;
59127;SDS011;44912;52.754;5.994;2023-08-30T02:17:42;14.85;;;11.77;;
59127;SDS011;44912;52.754;5.994;2023-08-30T02:20:09;15.93;;;11.93;;
59127;SDS011;44912;52.754;5.994;2023-08-30T02:22:34;16.58;;;12.15;;
59127;SDS011;44912;52.754;5.994;2023-08-30T02:25:01;15.77;;;12.00;;
59127;SDS011;44912;52.754;5.994;2023-08-30T02:27:32;15.38;;;11.57;;
59127;SDS011;44912;52.754;5.994;2023-08-30T02:29:59;17.45;;;12.85;;
59127;SDS011;44912;52.754;5.994;2023-08-30T02:32:25;15.18;;;12.27;;
59127;SDS011;44912;52.754;5.994;2023-08-30T02:34:51;14.82;;;12.20;;
59127;SDS011;44912;52.754;5.994;2023-08-30T02:37:18;15.15;;;11.65;;
59127;SDS011;44912;52.754;5.994;2023-08-30T02:39:44;15.25;;;12.00;;
59127;SDS011;44912;52.754;5.994;2023-08-30T02:42:09;15.82;;;11.57;;
59127;SDS011;44912;52.754;5.994;2023-08-30T02:44:35;16.33;;;12.82;;
59127;SDS011;44912;52.754;5.994;2023-08-30T02:47:01;16.15;;;11.60;;
59127;SDS011;44912;52.754;5.994;2023-08-30T02:49:26;14.23;;;11.90;;
59127;SDS011;44912;52.754;5.994;2023-08-30T02:51:52;16.45;;;11.55;;
59127;SDS011;44912;52.754;5.994;2023-08-30T02:54:17;17.50;;;12.00;;
59127;SDS011;44912;52.754;5.994;2023-08-30T02:56:43;14.30;;;11.18;;
59127;SDS011;44912;52.754;5.994;2023-08-30T02:59:09;14.50;;;11.60;;
59127;SDS011;44912;52.754;5.994;2023-08-30T03:01:36;15.95;;;11.73;;
59127;SDS011;44912;52.754;5.994;2023-08-30T03:04:01;15.13;;;12.30;;
59127;SDS011;44912;52.754;5.994;2023-08-30T03:06:29;15.38;;;11.48;;
59127;SDS011;44912;52.754;5.994;2023-08-30T03:08:54;14.48;;;11.20;;
59127;SDS011;44912;52.754;5.994;2023-08-30T03:11:20;14.10;;;11.10;;
59127;SDS011;44912;52.754;5.994;2023-08-30T03:13:45;13.43;;;10.88;;
59127;SDS011;44912;52.754;5.994;2023-08-30T03:16:14;14.35;;;11.15;;
59127;SDS011;44912;52.754;5.994;2023-08-30T03:18:41;15.15;;;11.65;;
59127;SDS011;44912;52.754;5.994;2023-08-30T03:21:07;13.95;;;11.05;;
59127;SDS011;44912;52.754;5.994;2023-08-30T03:23:33;13.82;;;11.38;;
59127;SDS011;44912;52.754;5.994;2023-08-30T03:26:07;15.88;;;11.50;;
59127;SDS011;44912;52.754;5.994;2023-08-30T03:28:33;14.98;;;11.45;;
59127;SDS011;44912;52.754;5.994;2023-08-30T03:30:59;14.25;;;11.38;;
59127;SDS011;44912;52.754;5.994;2023-08-30T03:33:24;14.52;;;12.13;;
59127;SDS011;44912;52.754;5.994;2023-08-30T03:35:50;17.58;;;12.50;;
59127;SDS011;44912;52.754;5.994;2023-08-30T03:38:15;14.98;;;12.23;;
59127;SDS011;44912;52.754;5.994;2023-08-30T03:40:41;14.68;;;10.73;;
59127;SDS011;44912;52.754;5.994;2023-08-30T03:43:06;15.00;;;11.70;;
59127;SDS011;44912;52.754;5.994;2023-08-30T03:45:35;14.90;;;12.05;;
59127;SDS011;44912;52.754;5.994;2023-08-30T03:48:01;15.48;;;11.38;;
59127;SDS011;44912;52.754;5.994;2023-08-30T03:50:28;15.30;;;12.05;;
59127;SDS011;44912;52.754;5.994;2023-08-30T03:52:53;16.58;;;12.25;;
59127;SDS011;44912;52.754;5.994;2023-08-30T03:55:19;14.32;;;11.48;;
59127;SDS011;44912;52.754;5.994;2023-08-30T03:57:46;14.30;;;11.30;;
59127;SDS011;44912;52.754;5.994;2023-08-30T04:00:12;16.55;;;12.73;;
59127;SDS011;44912;52.754;5.994;2023-08-30T04:02:38;17.23;;;12.05;;
59127;SDS011;44912;52.754;5.994;2023-08-30T04:05:03;15.35;;;11.90;;
59127;SDS011;44912;52.754;5.994;2023-08-30T04:07:33;17.50;;;12.48;;
59127;SDS011;44912;52.754;5.994;2023-08-30T04:09:58;14.60;;;11.95;;
59127;SDS011;44912;52.754;5.994;2023-08-30T04:12:24;15.27;;;11.88;;
59127;SDS011;44912;52.754;5.994;2023-08-30T04:14:49;15.38;;;11.77;;
59127;SDS011;44912;52.754;5.994;2023-08-30T04:17:15;16.88;;;12.13;;
59127;SDS011;44912;52.754;5.994;2023-08-30T04:19:40;17.52;;;12.55;;
59127;SDS011;44912;52.754;5.994;2023-08-30T04:22:06;15.07;;;11.38;;
59127;SDS011;44912;52.754;5.994;2023-08-30T04:24:32;15.43;;;11.30;;
59127;SDS011;44912;52.754;5.994;2023-08-30T04:26:57;14.50;;;10.98;;
59127;SDS011;44912;52.754;5.994;2023-08-30T04:29:22;14.55;;;10.63;;
59127;SDS011;44912;52.754;5.994;2023-08-30T04:31:48;14.40;;;10.73;;
59127;SDS011;44912;52.754;5.994;2023-08-30T04:34:14;13.60;;;10.77;;
59127;SDS011;44912;52.754;5.994;2023-08-30T04:36:41;15.43;;;10.48;;
59127;SDS011;44912;52.754;5.994;2023-08-30T04:39:06;16.02;;;10.90;;
59127;SDS011;44912;52.754;5.994;2023-08-30T04:41:32;15.05;;;10.45;;
59127;SDS011;44912;52.754;5.994;2023-08-30T04:44:01;13.00;;;10.35;;
59127;SDS011;44912;52.754;5.994;2023-08-30T04:46:40;14.85;;;10.35;;
59127;SDS011;44912;52.754;5.994;2023-08-30T04:49:06;14.35;;;10.50;;
59127;SDS011;44912;52.754;5.994;2023-08-30T04:51:31;13.93;;;10.02;;
59127;SDS011;44912;52.754;5.994;2023-08-30T04:53:57;15.38;;;10.48;;
59127;SDS011;44912;52.754;5.994;2023-08-30T04:56:22;14.57;;;10.50;;
59127;SDS011;44912;52.754;5.994;2023-08-30T04:58:48;15.48;;;10.35;;
59127;SDS011;44912;52.754;5.994;2023-08-30T05:01:15;15.95;;;10.60;;
59127;SDS011;44912;52.754;5.994;2023-08-30T05:03:40;14.88;;;10.88;;
59127;SDS011;44912;52.754;5.994;2023-08-30T05:06:06;14.52;;;10.95;;
59127;SDS011;44912;52.754;5.994;2023-08-30T05:08:32;15.20;;;10.30;;
59127;SDS011;44912;52.754;5.994;2023-08-30T05:11:17;14.68;;;10.43;;
59127;SDS011;44912;52.754;5.994;2023-08-30T05:13:42;15.90;;;10.75;;
59127;SDS011;44912;52.754;5.994;2023-08-30T05:16:08;15.10;;;10.10;;
59127;SDS011;44912;52.754;5.994;2023-08-30T05:18:34;17.92;;;11.35;;
59127;SDS011;44912;52.754;5.994;2023-08-30T05:21:05;15.02;;;10.70;;
59127;SDS011;44912;52.754;5.994;2023-08-30T05:23:30;14.50;;;10.73;;
59127;SDS011;44912;52.754;5.994;2023-08-30T05:25:56;16.92;;;11.43;;
59127;SDS011;44912;52.754;5.994;2023-08-30T05:28:22;15.32;;;11.05;;
59127;SDS011;44912;52.754;5.994;2023-08-30T05:30:47;14.75;;;11.25;;
59127;SDS011;44912;52.754;5.994;2023-08-30T05:33:13;15.95;;;11.25;;
59127;SDS011;44912;52.754;5.994;2023-08-30T05:35:38;15.50;;;11.38;;
59127;SDS011;44912;52.754;5.994;2023-08-30T05:38:04;18.25;;;11.70;;
59127;SDS011;44912;52.754;5.994;2023-08-30T05:40:30;15.68;;;11.52;;
59127;SDS011;44912;52.754;5.994;2023-08-30T05:43:02;14.98;;;11.38;;
59127;SDS011;44912;52.754;5.994;2023-08-30T05:45:27;16.02;;;11.40;;
59127;SDS011;44912;52.754;5.994;2023-08-30T05:47:53;16.55;;;11.77;;
59127;SDS011;44912;52.754;5.994;2023-08-30T05:50:18;15.70;;;10.55;;
59127;SDS011;44912;52.754;5.994;2023-08-30T05:52:44;15.65;;;11.68;;
59127;SDS011;44912;52.754;5.994;2023-08-30T05:55:10;15.18;;;11.40;;
59127;SDS011;44912;52.754;5.994;2023-08-30T05:57:35;15.80;;;11.40;;
59127;SDS011;44912;52.754;5.994;2023-08-30T06:00:12;15.70;;;10.95;;
59127;SDS011;44912;52.754;5.994;2023-08-30T06:02:38;17.83;;;11.63;;
59127;SDS011;44912;52.754;5.994;2023-08-30T06:05:05;16.60;;;11.40;;
59127;SDS011;44912;52.754;5.994;2023-08-30T06:07:31;17.33;;;11.40;;
59127;SDS011;44912;52.754;5.994;2023-08-30T06:09:57;16.02;;;11.38;;
59127;SDS011;44912;52.754;5.994;2023-08-30T06:12:22;15.27;;;10.48;;
59127;SDS011;44912;52.754;5.994;2023-08-30T06:14:48;18.75;;;11.77;;
59127;SDS011;44912;52.754;5.994;2023-08-30T06:17:17;17.20;;;10.80;;
59127;SDS011;44912;52.754;5.994;2023-08-30T06:19:47;14.30;;;11.00;;
59127;SDS011;44912;52.754;5.994;2023-08-30T06:22:13;14.48;;;10.60;;
59127;SDS011;44912;52.754;5.994;2023-08-30T06:24:38;15.18;;;11.20;;
59127;SDS011;44912;52.754;5.994;2023-08-30T06:27:04;14.38;;;10.75;;
59127;SDS011;44912;52.754;5.994;2023-08-30T06:29:30;16.15;;;11.10;;
59127;SDS011;44912;52.754;5.994;2023-08-30T06:31:55;17.65;;;11.60;;
59127;SDS011;44912;52.754;5.994;2023-08-30T06:34:21;15.90;;;11.07;;
59127;SDS011;44912;52.754;5.994;2023-08-30T06:36:47;15.48;;;10.00;;
59127;SDS011;44912;52.754;5.994;2023-08-30T06:39:13;15.98;;;11.15;;
59127;SDS011;44912;52.754;5.994;2023-08-30T06:41:38;15.50;;;10.77;;
59127;SDS011;44912;52.754;5.994;2023-08-30T06:44:04;16.73;;;10.35;;
59127;SDS011;44912;52.754;5.994;2023-08-30T06:46:29;16.42;;;10.85;;
59127;SDS011;44912;52.754;5.994;2023-08-30T06:48:55;17.08;;;10.43;;
59127;SDS011;44912;52.754;5.994;2023-08-30T06:51:20;15.57;;;10.82;;
59127;SDS011;44912;52.754;5.994;2023-08-30T06:53:46;16.45;;;11.23;;
59127;SDS011;44912;52.754;5.994;2023-08-30T06:56:12;15.52;;;10.50;;
59127;SDS011;44912;52.754;5.994;2023-08-30T06:58:38;15.63;;;10.63;;
59127;SDS011;44912;52.754;5.994;2023-08-30T07:01:03;17.67;;;11.75;;
59127;SDS011;44912;52.754;5.994;2023-08-30T07:03:29;14.85;;;10.50;;
59127;SDS011;44912;52.754;5.994;2023-08-30T07:05:55;13.43;;;9.60;;
59127;SDS011;44912;52.754;5.994;2023-08-30T07:08:20;15.63;;;11.25;;
59127;SDS011;44912;52.754;5.994;2023-08-30T07:10:46;15.23;;;10.52;;
59127;SDS011;44912;52.754;5.994;2023-08-30T07:13:12;15.05;;;10.23;;
59127;SDS011;44912;52.754;5.994;2023-08-30T07:15:41;15.23;;;11.18;;
59127;SDS011;44912;52.754;5.994;2023-08-30T07:18:07;15.82;;;10.40;;
59127;SDS011;44912;52.754;5.994;2023-08-30T07:20:33;14.52;;;10.13;;
59127;SDS011;44912;52.754;5.994;2023-08-30T07:23:00;14.57;;;10.05;;
59127;SDS011;44912;52.754;5.994;2023-08-30T07:25:26;15.65;;;10.25;;
59127;SDS011;44912;52.754;5.994;2023-08-30T07:27:51;14.85;;;10.20;;
59127;SDS011;44912;52.754;5.994;2023-08-30T07:30:17;14.20;;;10.27;;
59127;SDS011;44912;52.754;5.994;2023-08-30T07:32:42;13.40;;;9.65;;
59127;SDS011;44912;52.754;5.994;2023-08-30T07:35:08;13.82;;;9.82;;
59127;SDS011;44912;52.754;5.994;2023-08-30T07:37:34;13.60;;;9.45;;
59127;SDS011;44912;52.754;5.994;2023-08-30T07:40:00;16.27;;;9.98;;
59127;SDS011;44912;52.754;5.994;2023-08-30T07:42:26;15.18;;;9.90;;
59127;SDS011;44912;52.754;5.994;2023-08-30T07:44:52;15.02;;;9.82;;
59127;SDS011;44912;52.754;5.994;2023-08-30T07:47:17;14.02;;;9.95;;
59127;SDS011;44912;52.754;5.994;2023-08-30T07:49:43;14.48;;;9.95;;
59127;SDS011;44912;52.754;5.994;2023-08-30T07:52:08;13.95;;;10.00;;
59127;SDS011;44912;52.754;5.994;2023-08-30T07:54:36;15.32;;;10.85;;
59127;SDS011;44912;52.754;5.994;2023-08-30T07:57:02;14.30;;;9.63;;
59127;SDS011;44912;52.754;5.994;2023-08-30T07:59:28;15.02;;;10.10;;
59127;SDS011;44912;52.754;5.994;2023-08-30T08:01:54;13.50;;;9.38;;
59127;SDS011;44912;52.754;5.994;2023-08-30T08:04:20;14.20;;;9.10;;
59127;SDS011;44912;52.754;5.994;2023-08-30T08:06:46;13.07;;;8.32;;
59127;SDS011;44912;52.754;5.994;2023-08-30T08:09:12;12.05;;;8.23;;
59127;SDS011;44912;52.754;5.994;2023-08-30T08:11:37;12.10;;;8.27;;
59127;SDS011;44912;52.754;5.994;2023-08-30T08:14:08;12.18;;;7.80;;
59127;SDS011;44912;52.754;5.994;2023-08-30T08:16:34;13.18;;;7.50;;
59127;SDS011;44912;52.754;5.994;2023-08-30T08:19:00;11.60;;;7.78;;
59127;SDS011;44912;52.754;5.994;2023-08-30T08:21:26;13.85;;;7.40;;
59127;SDS011;44912;52.754;5.994;2023-08-30T08:23:52;12.55;;;8.23;;
59127;SDS011;44912;52.754;5.994;2023-08-30T08:26:17;13.52;;;7.80;;
59127;SDS011;44912;52.754;5.994;2023-08-30T08:28:43;13.32;;;7.53;;
59127;SDS011;44912;52.754;5.994;2023-08-30T08:31:09;12.38;;;7.70;;
59127;SDS011;44912;52.754;5.994;2023-08-30T08:33:35;12.70;;;7.90;;
59127;SDS011;44912;52.754;5.994;2023-08-30T08:36:00;14.20;;;8.52;;
59127;SDS011;44912;52.754;5.994;2023-08-30T08:38:26;13.75;;;8.10;;
59127;SDS011;44912;52.754;5.994;2023-08-30T08:40:53;12.23;;;8.52;;
59127;SDS011;44912;52.754;5.994;2023-08-30T08:43:37;14.23;;;8.48;;
59127;SDS011;44912;52.754;5.994;2023-08-30T08:46:05;16.30;;;9.32;;
59127;SDS011;44912;52.754;5.994;2023-08-30T08:48:31;13.27;;;8.45;;
59127;SDS011;44912;52.754;5.994;2023-08-30T08:51:01;14.82;;;8.95;;
59127;SDS011;44912;52.754;5.994;2023-08-30T08:53:26;15.13;;;9.20;;
59127;SDS011;44912;52.754;5.994;2023-08-30T08:55:53;14.07;;;9.73;;
59127;SDS011;44912;52.754;5.994;2023-08-30T08:58:21;12.23;;;9.55;;
59127;SDS011;44912;52.754;5.994;2023-08-30T09:00:46;13.95;;;9.60;;
59127;SDS011;44912;52.754;5.994;2023-08-30T09:03:12;13.73;;;9.23;;
59127;SDS011;44912;52.754;5.994;2023-08-30T09:05:38;14.07;;;10.10;;
59127;SDS011;44912;52.754;5.994;2023-08-30T09:08:04;14.20;;;9.73;;
59127;SDS011;44912;52.754;5.994;2023-08-30T09:10:34;13.02;;;9.50;;
59127;SDS011;44912;52.754;5.994;2023-08-30T09:13:00;12.95;;;9.27;;
59127;SDS011;44912;52.754;5.994;2023-08-30T09:15:33;13.60;;;9.55;;
59127;SDS011;44912;52.754;5.994;2023-08-30T09:17:59;13.68;;;9.70;;
59127;SDS011;44912;52.754;5.994;2023-08-30T09:20:25;14.18;;;9.77;;
59127;SDS011;44912;52.754;5.994;2023-08-30T09:22:50;15.18;;;10.27;;
59127;SDS011;44912;52.754;5.994;2023-08-30T09:25:26;14.70;;;9.73;;
59127;SDS011;44912;52.754;5.994;2023-08-30T09:27:59;13.82;;;10.40;;
59127;SDS011;44912;52.754;5.994;2023-08-30T09:30:25;13.43;;;9.63;;
59127;SDS011;44912;52.754;5.994;2023-08-30T09:32:51;13.30;;;9.98;;
59127;SDS011;44912;52.754;5.994;2023-08-30T09:35:16;11.90;;;8.38;;
59127;SDS011;44912;52.754;5.994;2023-08-30T09:37:46;12.75;;;8.80;;
59127;SDS011;44912;52.754;5.994;2023-08-30T09:40:12;13.85;;;9.48;;
59127;SDS011;44912;52.754;5.994;2023-08-30T09:42:43;14.23;;;9.27;;
59127;SDS011;44912;52.754;5.994;2023-08-30T09:45:18;13.68;;;8.85;;
59127;SDS011;44912;52.754;5.994;2023-08-30T09:47:50;13.30;;;8.20;;
59127;SDS011;44912;52.754;5.994;2023-08-30T09:50:19;11.63;;;8.10;;
59127;SDS011;44912;52.754;5.994;2023-08-30T09:52:48;12.57;;;8.07;;
59127;SDS011;44912;52.754;5.994;2023-08-30T09:55:15;12.40;;;8.40;;
59127;SDS011;44912;52.754;5.994;2023-08-30T09:57:44;12.35;;;7.75;;
59127;SDS011;44912;52.754;5.994;2023-08-30T10:00:10;11.50;;;7.45;;
59127;SDS011;44912;52.754;5.994;2023-08-30T10:02:42;10.63;;;7.15;;
59127;SDS011;44912;52.754;5.994;2023-08-30T10:05:12;10.57;;;6.68;;
59127;SDS011;44912;52.754;5.994;2023-08-30T10:07:38;10.43;;;6.93;;
59127;SDS011;44912;52.754;5.994;2023-08-30T10:10:04;11.25;;;7.03;;
59127;SDS011;44912;52.754;5.994;2023-08-30T10:12:33;12.40;;;6.97;;
59127;SDS011;44912;52.754;5.994;2023-08-30T10:14:59;9.10;;;5.78;;
59127;SDS011;44912;52.754;5.994;2023-08-30T10:17:31;10.43;;;6.75;;
59127;SDS011;44912;52.754;5.994;2023-08-30T10:19:58;9.98;;;6.57;;
59127;SDS011;44912;52.754;5.994;2023-08-30T10:22:28;10.13;;;5.90;;
59127;SDS011;44912;52.754;5.994;2023-08-30T10:24:56;9.10;;;5.97;;
59127;SDS011;44912;52.754;5.994;2023-08-30T10:27:25;9.35;;;5.82;;
59127;SDS011;44912;52.754;5.994;2023-08-30T10:29:52;9.32;;;6.20;;
59127;SDS011;44912;52.754;5.994;2023-08-30T10:32:19;10.05;;;6.05;;
59127;SDS011;44912;52.754;5.994;2023-08-30T10:34:47;9.93;;;6.53;;
59127;SDS011;44912;52.754;5.994;2023-08-30T10:37:14;9.48;;;6.28;;
59127;SDS011;44912;52.754;5.994;2023-08-30T10:39:41;9.02;;;6.18;;
59127;SDS011;44912;52.754;5.994;2023-08-30T10:42:11;10.10;;;6.53;;
59127;SDS011;44912;52.754;5.994;2023-08-30T10:44:48;9.73;;;6.47;;
59127;SDS011;44912;52.754;5.994;2023-08-30T10:47:25;10.50;;;7.18;;
59127;SDS011;44912;52.754;5.994;2023-08-30T10:50:00;10.02;;;6.28;;
59127;SDS011;44912;52.754;5.994;2023-08-30T10:52:29;9.65;;;6.38;;
59127;SDS011;44912;52.754;5.994;2023-08-30T10:55:07;10.98;;;6.88;;
59127;SDS011;44912;52.754;5.994;2023-08-30T10:57:35;10.30;;;6.55;;
59127;SDS011;44912;52.754;5.994;2023-08-30T11:00:08;10.98;;;7.03;;
59127;SDS011;44912;52.754;5.994;2023-08-30T11:02:36;9.73;;;6.80;;
59127;SDS011;44912;52.754;5.994;2023-08-30T11:05:04;10.80;;;6.25;;
59127;SDS011;44912;52.754;5.994;2023-08-30T11:07:31;9.35;;;6.75;;
59127;SDS011;44912;52.754;5.994;2023-08-30T11:09:58;9.55;;;6.28;;
59127;SDS011;44912;52.754;5.994;2023-08-30T11:12:23;10.55;;;6.93;;
59127;SDS011;44912;52.754;5.994;2023-08-30T11:14:54;10.25;;;6.45;;
59127;SDS011;44912;52.754;5.994;2023-08-30T11:17:20;11.30;;;6.80;;
59127;SDS011;44912;52.754;5.994;2023-08-30T11:19:46;9.18;;;6.60;;
59127;SDS011;44912;52.754;5.994;2023-08-30T11:22:14;10.63;;;7.22;;
59127;SDS011;44912;52.754;5.994;2023-08-30T11:24:43;9.63;;;6.78;;
59127;SDS011;44912;52.754;5.994;2023-08-30T11:27:10;9.95;;;6.95;;
59127;SDS011;44912;52.754;5.994;2023-08-30T11:29:36;11.30;;;7.07;;
59127;SDS011;44912;52.754;5.994;2023-08-30T11:32:05;10.98;;;7.53;;
59127;SDS011;44912;52.754;5.994;2023-08-30T11:34:32;12.07;;;7.10;;
59127;SDS011;44912;52.754;5.994;2023-08-30T11:36:58;10.35;;;7.65;;
59127;SDS011;44912;52.754;5.994;2023-08-30T11:39:23;10.88;;;7.25;;
59127;SDS011;44912;52.754;5.994;2023-08-30T11:41:52;10.75;;;7.47;;
59127;SDS011;44912;52.754;5.994;2023-08-30T11:44:18;11.50;;;7.60;;
59127;SDS011;44912;52.754;5.994;2023-08-30T11:46:44;9.98;;;6.95;;
59127;SDS011;44912;52.754;5.994;2023-08-30T11:49:17;10.07;;;7.10;;
59127;SDS011;44912;52.754;5.994;2023-08-30T11:51:43;10.15;;;6.55;;
59127;SDS011;44912;52.754;5.994;2023-08-30T11:54:09;10.80;;;7.43;;
59127;SDS011;44912;52.754;5.994;2023-08-30T11:56:35;10.95;;;7.80;;
59127;SDS011;44912;52.754;5.994;2023-08-30T11:59:01;10.63;;;7.93;;
59127;SDS011;44912;52.754;5.994;2023-08-30T12:01:29;10.82;;;8.10;;
59127;SDS011;44912;52.754;5.994;2023-08-30T12:03:55;10.80;;;7.88;;
59127;SDS011;44912;52.754;5.994;2023-08-30T12:06:22;9.98;;;6.78;;
59127;SDS011;44912;52.754;5.994;2023-08-30T12:08:48;11.48;;;8.20;;
59127;SDS011;44912;52.754;5.994;2023-08-30T12:11:22;9.88;;;7.18;;
59127;SDS011;44912;52.754;5.994;2023-08-30T12:13:47;9.48;;;7.07;;
59127;SDS011;44912;52.754;5.994;2023-08-30T12:16:16;11.43;;;7.25;;
59127;SDS011;44912;52.754;5.994;2023-08-30T12:18:43;9.93;;;6.82;;
59127;SDS011;44912;52.754;5.994;2023-08-30T12:21:09;10.80;;;7.35;;
59127;SDS011;44912;52.754;5.994;2023-08-30T12:23:34;9.27;;;7.13;;
59127;SDS011;44912;52.754;5.994;2023-08-30T12:26:01;9.35;;;7.15;;
59127;SDS011;44912;52.754;5.994;2023-08-30T12:28:29;10.95;;;7.75;;
59127;SDS011;44912;52.754;5.994;2023-08-30T12:30:57;10.95;;;7.78;;
59127;SDS011;44912;52.754;5.994;2023-08-30T12:33:23;12.10;;;7.78;;
59127;SDS011;44912;52.754;5.994;2023-08-30T12:35:50;11.55;;;8.25;;
59127;SDS011;44912;52.754;5.994;2023-08-30T12:38:19;9.13;;;7.00;;
59127;SDS011;44912;52.754;5.994;2023-08-30T12:40:46;9.98;;;8.15;;
59127;SDS011;44912;52.754;5.994;2023-08-30T12:43:13;8.15;;;5.53;;
59127;SDS011;44912;52.754;5.994;2023-08-30T12:45:39;8.90;;;6.32;;
59127;SDS011;44912;52.754;5.994;2023-08-30T12:48:05;9.18;;;6.03;;
59127;SDS011;44912;52.754;5.994;2023-08-30T12:50:35;8.73;;;6.35;;
59127;SDS011;44912;52.754;5.994;2023-08-30T12:53:05;4.88;;;2.58;;
59127;SDS011;44912;52.754;5.994;2023-08-30T12:55:31;7.30;;;3.95;;
59127;SDS011;44912;52.754;5.994;2023-08-30T12:57:56;3.88;;;2.20;;
59127;SDS011;44912;52.754;5.994;2023-08-30T13:00:23;3.05;;;1.70;;
59127;SDS011;44912;52.754;5.994;2023-08-30T13:02:49;2.20;;;1.38;;
59127;SDS011;44912;52.754;5.994;2023-08-30T13:05:14;3.50;;;2.00;;
59127;SDS011;44912;52.754;5.994;2023-08-30T13:07:40;3.30;;;1.60;;
59127;SDS011;44912;52.754;5.994;2023-08-30T13:10:07;2.53;;;1.60;;
59127;SDS011;44912;52.754;5.994;2023-08-30T13:12:32;2.75;;;1.88;;
59127;SDS011;44912;52.754;5.994;2023-08-30T13:14:58;4.15;;;2.30;;
59127;SDS011;44912;52.754;5.994;2023-08-30T13:17:24;3.40;;;1.67;;
59127;SDS011;44912;52.754;5.994;2023-08-30T13:19:49;4.18;;;2.53;;
59127;SDS011;44912;52.754;5.994;2023-08-30T13:22:16;3.65;;;2.30;;
59127;SDS011;44912;52.754;5.994;2023-08-30T13:24:41;4.45;;;3.05;;
59127;SDS011;44912;52.754;5.994;2023-08-30T13:27:07;5.95;;;3.80;;
59127;SDS011;44912;52.754;5.994;2023-08-30T13:29:33;6.45;;;3.80;;
59127;SDS011;44912;52.754;5.994;2023-08-30T13:31:58;7.18;;;4.38;;
59127;SDS011;44912;52.754;5.994;2023-08-30T13:34:24;6.93;;;3.50;;
59127;SDS011;44912;52.754;5.994;2023-08-30T13:36:49;7.05;;;3.78;;
59127;SDS011;44912;52.754;5.994;2023-08-30T13:39:15;6.53;;;3.58;;
59127;SDS011;44912;52.754;5.994;2023-08-30T13:41:40;6.10;;;3.70;;
59127;SDS011;44912;52.754;5.994;2023-08-30T13:44:06;6.97;;;2.85;;
59127;SDS011;44912;52.754;5.994;2023-08-30T13:46:33;8.15;;;2.90;;
59127;SDS011;44912;52.754;5.994;2023-08-30T13:48:58;8.88;;;3.45;;
59127;SDS011;44912;52.754;5.994;2023-08-30T13:51:25;7.35;;;2.83;;
59127;SDS011;44912;52.754;5.994;2023-08-30T13:53:51;8.65;;;2.80;;
59127;SDS011;44912;52.754;5.994;2023-08-30T13:56:18;7.45;;;2.72;;
59127;SDS011;44912;52.754;5.994;2023-08-30T13:58:45;9.68;;;2.70;;
59127;SDS011;44912;52.754;5.994;2023-08-30T14:01:11;8.07;;;2.55;;
59127;SDS011;44912;52.754;5.994;2023-08-30T14:03:37;6.82;;;1.92;;
59127;SDS011;44912;52.754;5.994;2023-08-30T14:06:03;8.68;;;2.42;;
59127;SDS011;44912;52.754;5.994;2023-08-30T14:08:28;6.85;;;2.28;;
59127;SDS011;44912;52.754;5.994;2023-08-30T14:10:54;8.10;;;2.72;;
59127;SDS011;44912;52.754;5.994;2023-08-30T14:13:20;7.75;;;2.30;;
59127;SDS011;44912;52.754;5.994;2023-08-30T14:15:46;8.05;;;2.45;;
59127;SDS011;44912;52.754;5.994;2023-08-30T14:18:12;8.05;;;2.28;;
59127;SDS011;44912;52.754;5.994;2023-08-30T14:20:38;8.32;;;2.00;;
59127;SDS011;44912;52.754;5.994;2023-08-30T14:23:04;9.00;;;2.20;;
59127;SDS011;44912;52.754;5.994;2023-08-30T14:25:29;8.23;;;2.00;;
59127;SDS011;44912;52.754;5.994;2023-08-30T14:27:55;7.15;;;1.73;;
59127;SDS011;44912;52.754;5.994;2023-08-30T14:30:20;4.65;;;1.40;;
59127;SDS011;44912;52.754;5.994;2023-08-30T14:32:46;8.45;;;1.88;;
59127;SDS011;44912;52.754;5.994;2023-08-30T14:35:12;8.57;;;2.17;;
59127;SDS011;44912;52.754;5.994;2023-08-30T14:37:38;5.57;;;1.50;;
59127;SDS011;44912;52.754;5.994;2023-08-30T14:40:04;6.00;;;1.55;;
59127;SDS011;44912;52.754;5.994;2023-08-30T14:42:31;6.13;;;1.55;;